Outagamie County Regional, WI

5:13 AM CST on December 08, 2016 (GMT -0600)
Outagamie County Regional | | Change Station

Elev 919 ft 44.26 °N, 88.52 °W | Updated 58 minutes ago

Light Snow
Light Snow
19 °F
Feels Like 4 °F
N
18
Wind Variable Wind from West
Gusts 25 mph

Today
High -- | Low -- °F
--% Chance of Precip.
Yesterday
High -- | Low -- °F
Precip. -- in
Pressure 30.02 in
Visibility 10.0 miles
Clouds Scattered Clouds 2100 ft
Overcast 2800 ft
Windchill 4 °F
Dew Point 12 °F
Humidity 74%
Rainfall 0.00 in
Snow Depth Not available.
7:17 AM 4:15 PM
Waxing Gibbous, 62% visible
METAR KATW 081015Z AUTO 27016G22KT 10SM -SN SCT021 OVC028 M07/M11 A3002 RMK AO2
Pressure 30.02 in
Visibility 10.0 miles
Clouds Scattered Clouds 2100 ft
Overcast 2800 ft
Windchill 4 °F
Dew Point 12 °F
Humidity 74%
Rainfall 0.00 in
Snow Depth Not available.
7:17 AM 4:15 PM
Waxing Gibbous, 62% visible
METAR KATW 081015Z AUTO 27016G22KT 10SM -SN SCT021 OVC028 M07/M11 A3002 RMK AO2

10-Day Weather Forecast

Almanac

Astronomy

Dec. 08, 2016 Rise Set
Actual Time
Civil Twilight
Nautical Twilight
Astronomical Twilight
Moon
Length of Visible Light
Length of Day
Tomorrow will be .
, % of the Moon is Illuminated

Today's Extremes

State Highs State Lows

Community

WunderPhotos

Upload Photos

1,956,261 photos uploaded!

WunderBlog® & News

Nearby

Air Quality

  Air Quality AQ Index Pollutant
Not available.

Snow Depth

Station Depth Elevation

Earthquake Activity

City Distance Mag. Time & Date
Minimum magnitude displayed is 2.5.

Coastal Water Temperatures

Place Temperature

Stations

Nearby Weather Stations

Station Location Temp. Windchill Dew Point Humidity Wind Precip. Elev Updated Type
                   

Watches & Warnings

There are currently no watches in effect.